sensor_id;sensor_type;location;lat;lon;timestamp;P1;durP1;ratioP1;P2;durP2;ratioP2
25936;SDS011;13733;51.178;4.450;2023-03-31T00:00:25;16.50;;;3.97;;
25936;SDS011;13733;51.178;4.450;2023-03-31T00:02:51;19.20;;;4.45;;
25936;SDS011;13733;51.178;4.450;2023-03-31T00:05:19;20.23;;;3.83;;
25936;SDS011;13733;51.178;4.450;2023-03-31T00:07:45;17.63;;;4.13;;
25936;SDS011;13733;51.178;4.450;2023-03-31T00:10:12;17.15;;;3.97;;
25936;SDS011;13733;51.178;4.450;2023-03-31T00:12:39;13.48;;;3.45;;
25936;SDS011;13733;51.178;4.450;2023-03-31T00:15:05;20.65;;;4.13;;
25936;SDS011;13733;51.178;4.450;2023-03-31T00:17:31;21.15;;;4.85;;
25936;SDS011;13733;51.178;4.450;2023-03-31T00:19:57;13.65;;;3.88;;
25936;SDS011;13733;51.178;4.450;2023-03-31T00:22:29;14.30;;;3.45;;
25936;SDS011;13733;51.178;4.450;2023-03-31T00:24:55;23.30;;;4.32;;
25936;SDS011;13733;51.178;4.450;2023-03-31T00:27:21;18.52;;;4.35;;
25936;SDS011;13733;51.178;4.450;2023-03-31T00:29:46;17.00;;;3.65;;
25936;SDS011;13733;51.178;4.450;2023-03-31T00:32:14;20.50;;;4.60;;
25936;SDS011;13733;51.178;4.450;2023-03-31T00:34:40;20.45;;;4.07;;
25936;SDS011;13733;51.178;4.450;2023-03-31T00:37:07;22.55;;;4.47;;
25936;SDS011;13733;51.178;4.450;2023-03-31T00:39:34;19.60;;;4.18;;
25936;SDS011;13733;51.178;4.450;2023-03-31T00:42:01;18.15;;;4.30;;
25936;SDS011;13733;51.178;4.450;2023-03-31T00:44:28;24.92;;;4.18;;
25936;SDS011;13733;51.178;4.450;2023-03-31T00:47:03;19.93;;;4.43;;
25936;SDS011;13733;51.178;4.450;2023-03-31T00:52:04;21.70;;;4.60;;
25936;SDS011;13733;51.178;4.450;2023-03-31T00:54:34;22.38;;;4.03;;
25936;SDS011;13733;51.178;4.450;2023-03-31T00:57:01;18.95;;;3.55;;
25936;SDS011;13733;51.178;4.450;2023-03-31T00:59:31;17.45;;;3.60;;
25936;SDS011;13733;51.178;4.450;2023-03-31T01:02:03;19.95;;;3.80;;
25936;SDS011;13733;51.178;4.450;2023-03-31T01:04:30;14.25;;;3.47;;
25936;SDS011;13733;51.178;4.450;2023-03-31T01:07:19;16.67;;;4.20;;
25936;SDS011;13733;51.178;4.450;2023-03-31T01:09:50;16.70;;;2.90;;
25936;SDS011;13733;51.178;4.450;2023-03-31T01:12:20;12.85;;;3.50;;
25936;SDS011;13733;51.178;4.450;2023-03-31T01:14:49;16.48;;;3.25;;
25936;SDS011;13733;51.178;4.450;2023-03-31T01:17:16;15.52;;;3.33;;
25936;SDS011;13733;51.178;4.450;2023-03-31T01:28:07;20.83;;;3.60;;
25936;SDS011;13733;51.178;4.450;2023-03-31T01:47:17;13.82;;;2.92;;
25936;SDS011;13733;51.178;4.450;2023-03-31T02:00:35;13.88;;;2.95;;
25936;SDS011;13733;51.178;4.450;2023-03-31T02:05:43;15.90;;;3.30;;
25936;SDS011;13733;51.178;4.450;2023-03-31T02:08:25;21.48;;;4.07;;
25936;SDS011;13733;51.178;4.450;2023-03-31T02:10:57;14.77;;;3.40;;
25936;SDS011;13733;51.178;4.450;2023-03-31T02:13:24;16.23;;;4.18;;
25936;SDS011;13733;51.178;4.450;2023-03-31T02:15:53;14.88;;;3.78;;
25936;SDS011;13733;51.178;4.450;2023-03-31T02:18:24;13.90;;;3.75;;
25936;SDS011;13733;51.178;4.450;2023-03-31T02:20:54;15.30;;;4.18;;
25936;SDS011;13733;51.178;4.450;2023-03-31T02:23:24;11.93;;;3.75;;
25936;SDS011;13733;51.178;4.450;2023-03-31T02:28:27;17.00;;;3.80;;
25936;SDS011;13733;51.178;4.450;2023-03-31T02:33:28;14.43;;;3.78;;
25936;SDS011;13733;51.178;4.450;2023-03-31T02:35:56;15.60;;;3.42;;
25936;SDS011;13733;51.178;4.450;2023-03-31T02:38:23;17.48;;;3.30;;
25936;SDS011;13733;51.178;4.450;2023-03-31T02:40:49;13.85;;;3.50;;
25936;SDS011;13733;51.178;4.450;2023-03-31T02:43:15;13.80;;;3.45;;
25936;SDS011;13733;51.178;4.450;2023-03-31T02:48:14;10.35;;;2.65;;
25936;SDS011;13733;51.178;4.450;2023-03-31T02:50:53;13.90;;;3.08;;
25936;SDS011;13733;51.178;4.450;2023-03-31T03:02:03;13.07;;;2.63;;
25936;SDS011;13733;51.178;4.450;2023-03-31T03:16:39;15.60;;;3.55;;
25936;SDS011;13733;51.178;4.450;2023-03-31T03:19:08;14.95;;;2.33;;
25936;SDS011;13733;51.178;4.450;2023-03-31T03:21:41;9.07;;;2.40;;
25936;SDS011;13733;51.178;4.450;2023-03-31T03:24:08;15.00;;;3.50;;
25936;SDS011;13733;51.178;4.450;2023-03-31T03:26:33;9.05;;;1.98;;
25936;SDS011;13733;51.178;4.450;2023-03-31T03:28:59;12.05;;;2.28;;
25936;SDS011;13733;51.178;4.450;2023-03-31T03:31:25;13.52;;;2.47;;
25936;SDS011;13733;51.178;4.450;2023-03-31T03:33:51;11.23;;;2.70;;
25936;SDS011;13733;51.178;4.450;2023-03-31T03:36:17;11.80;;;2.72;;
25936;SDS011;13733;51.178;4.450;2023-03-31T03:38:43;11.90;;;2.78;;
25936;SDS011;13733;51.178;4.450;2023-03-31T03:41:09;9.05;;;2.40;;
25936;SDS011;13733;51.178;4.450;2023-03-31T03:43:34;8.32;;;2.72;;
25936;SDS011;13733;51.178;4.450;2023-03-31T03:46:00;11.38;;;2.60;;
25936;SDS011;13733;51.178;4.450;2023-03-31T03:48:26;12.77;;;2.60;;
25936;SDS011;13733;51.178;4.450;2023-03-31T03:50:52;12.32;;;2.22;;
25936;SDS011;13733;51.178;4.450;2023-03-31T03:53:18;13.07;;;2.90;;
25936;SDS011;13733;51.178;4.450;2023-03-31T03:55:44;15.05;;;3.45;;
25936;SDS011;13733;51.178;4.450;2023-03-31T03:58:14;14.32;;;3.03;;
25936;SDS011;13733;51.178;4.450;2023-03-31T04:00:41;12.18;;;2.90;;
25936;SDS011;13733;51.178;4.450;2023-03-31T04:03:07;13.18;;;2.42;;
25936;SDS011;13733;51.178;4.450;2023-03-31T04:05:32;13.20;;;2.70;;
25936;SDS011;13733;51.178;4.450;2023-03-31T04:07:58;14.05;;;3.72;;
25936;SDS011;13733;51.178;4.450;2023-03-31T04:10:24;11.10;;;2.60;;
25936;SDS011;13733;51.178;4.450;2023-03-31T04:12:49;10.38;;;2.58;;
25936;SDS011;13733;51.178;4.450;2023-03-31T04:15:15;14.85;;;2.95;;
25936;SDS011;13733;51.178;4.450;2023-03-31T04:17:41;10.10;;;2.53;;
25936;SDS011;13733;51.178;4.450;2023-03-31T04:20:12;11.43;;;2.47;;
25936;SDS011;13733;51.178;4.450;2023-03-31T04:22:39;10.90;;;2.58;;
25936;SDS011;13733;51.178;4.450;2023-03-31T04:25:08;8.85;;;2.33;;
25936;SDS011;13733;51.178;4.450;2023-03-31T04:27:45;6.15;;;2.08;;
25936;SDS011;13733;51.178;4.450;2023-03-31T04:30:15;11.55;;;2.55;;
25936;SDS011;13733;51.178;4.450;2023-03-31T04:32:48;7.97;;;1.83;;
25936;SDS011;13733;51.178;4.450;2023-03-31T04:35:19;11.48;;;2.10;;
25936;SDS011;13733;51.178;4.450;2023-03-31T04:37:49;9.07;;;2.40;;
25936;SDS011;13733;51.178;4.450;2023-03-31T04:40:22;13.30;;;2.53;;
25936;SDS011;13733;51.178;4.450;2023-03-31T04:42:48;5.65;;;1.73;;
25936;SDS011;13733;51.178;4.450;2023-03-31T04:45:14;6.90;;;2.05;;
25936;SDS011;13733;51.178;4.450;2023-03-31T04:47:40;8.63;;;1.80;;
25936;SDS011;13733;51.178;4.450;2023-03-31T04:50:06;9.68;;;2.30;;
25936;SDS011;13733;51.178;4.450;2023-03-31T04:52:32;7.88;;;1.70;;
25936;SDS011;13733;51.178;4.450;2023-03-31T04:54:58;10.25;;;2.35;;
25936;SDS011;13733;51.178;4.450;2023-03-31T04:57:23;8.13;;;1.90;;
25936;SDS011;13733;51.178;4.450;2023-03-31T04:59:49;5.47;;;1.70;;
25936;SDS011;13733;51.178;4.450;2023-03-31T05:02:15;7.15;;;2.00;;
25936;SDS011;13733;51.178;4.450;2023-03-31T05:04:47;9.73;;;1.80;;
25936;SDS011;13733;51.178;4.450;2023-03-31T05:07:13;6.32;;;1.73;;
25936;SDS011;13733;51.178;4.450;2023-03-31T05:09:39;7.82;;;1.80;;
25936;SDS011;13733;51.178;4.450;2023-03-31T05:12:05;9.02;;;2.25;;
25936;SDS011;13733;51.178;4.450;2023-03-31T05:14:31;6.18;;;2.03;;
25936;SDS011;13733;51.178;4.450;2023-03-31T05:16:57;7.03;;;1.75;;
25936;SDS011;13733;51.178;4.450;2023-03-31T05:19:23;5.43;;;1.88;;
25936;SDS011;13733;51.178;4.450;2023-03-31T05:21:49;6.88;;;2.38;;
25936;SDS011;13733;51.178;4.450;2023-03-31T05:24:15;9.38;;;2.40;;
25936;SDS011;13733;51.178;4.450;2023-03-31T05:26:40;7.55;;;2.53;;
25936;SDS011;13733;51.178;4.450;2023-03-31T05:29:11;7.40;;;2.55;;
25936;SDS011;13733;51.178;4.450;2023-03-31T05:31:37;11.27;;;3.13;;
25936;SDS011;13733;51.178;4.450;2023-03-31T05:34:04;8.25;;;2.70;;
25936;SDS011;13733;51.178;4.450;2023-03-31T05:36:30;13.70;;;2.65;;
25936;SDS011;13733;51.178;4.450;2023-03-31T05:38:56;15.95;;;3.50;;
25936;SDS011;13733;51.178;4.450;2023-03-31T05:41:22;9.48;;;2.78;;
25936;SDS011;13733;51.178;4.450;2023-03-31T05:43:48;14.73;;;3.47;;
25936;SDS011;13733;51.178;4.450;2023-03-31T05:46:13;16.77;;;3.80;;
25936;SDS011;13733;51.178;4.450;2023-03-31T05:48:39;13.15;;;3.72;;
25936;SDS011;13733;51.178;4.450;2023-03-31T05:51:06;7.80;;;3.33;;
25936;SDS011;13733;51.178;4.450;2023-03-31T05:53:32;11.23;;;4.60;;
25936;SDS011;13733;51.178;4.450;2023-03-31T05:55:58;10.30;;;4.93;;
25936;SDS011;13733;51.178;4.450;2023-03-31T05:58:26;8.68;;;5.53;;
25936;SDS011;13733;51.178;4.450;2023-03-31T06:01:03;11.32;;;4.45;;
25936;SDS011;13733;51.178;4.450;2023-03-31T06:03:31;7.95;;;3.55;;
25936;SDS011;13733;51.178;4.450;2023-03-31T06:08:29;9.57;;;3.42;;
25936;SDS011;13733;51.178;4.450;2023-03-31T06:10:56;11.57;;;3.85;;
25936;SDS011;13733;51.178;4.450;2023-03-31T06:13:22;17.75;;;4.82;;
25936;SDS011;13733;51.178;4.450;2023-03-31T06:15:52;14.02;;;4.03;;
25936;SDS011;13733;51.178;4.450;2023-03-31T06:18:28;13.40;;;3.70;;
25936;SDS011;13733;51.178;4.450;2023-03-31T06:20:55;21.25;;;4.60;;
25936;SDS011;13733;51.178;4.450;2023-03-31T06:23:21;18.73;;;4.05;;
25936;SDS011;13733;51.178;4.450;2023-03-31T06:25:48;21.17;;;4.60;;
25936;SDS011;13733;51.178;4.450;2023-03-31T06:28:14;19.23;;;4.03;;
25936;SDS011;13733;51.178;4.450;2023-03-31T06:30:40;20.10;;;4.55;;
25936;SDS011;13733;51.178;4.450;2023-03-31T06:33:06;21.75;;;4.22;;
25936;SDS011;13733;51.178;4.450;2023-03-31T06:35:32;19.20;;;4.07;;
25936;SDS011;13733;51.178;4.450;2023-03-31T06:37:59;25.08;;;4.53;;
25936;SDS011;13733;51.178;4.450;2023-03-31T06:40:25;17.95;;;4.13;;
25936;SDS011;13733;51.178;4.450;2023-03-31T06:42:50;21.05;;;4.10;;
25936;SDS011;13733;51.178;4.450;2023-03-31T06:45:17;22.10;;;4.65;;
25936;SDS011;13733;51.178;4.450;2023-03-31T06:47:43;17.20;;;4.35;;
25936;SDS011;13733;51.178;4.450;2023-03-31T06:50:09;23.58;;;4.80;;
25936;SDS011;13733;51.178;4.450;2023-03-31T06:52:35;25.55;;;4.95;;
25936;SDS011;13733;51.178;4.450;2023-03-31T06:55:01;17.75;;;4.07;;
25936;SDS011;13733;51.178;4.450;2023-03-31T06:57:27;18.85;;;4.45;;
25936;SDS011;13733;51.178;4.450;2023-03-31T06:59:54;21.15;;;4.10;;
25936;SDS011;13733;51.178;4.450;2023-03-31T07:02:20;23.33;;;4.25;;
25936;SDS011;13733;51.178;4.450;2023-03-31T07:04:45;22.67;;;4.47;;
25936;SDS011;13733;51.178;4.450;2023-03-31T07:07:11;21.67;;;5.13;;
25936;SDS011;13733;51.178;4.450;2023-03-31T07:09:37;23.83;;;4.43;;
25936;SDS011;13733;51.178;4.450;2023-03-31T07:12:03;20.58;;;4.45;;
25936;SDS011;13733;51.178;4.450;2023-03-31T07:14:32;28.30;;;5.13;;
25936;SDS011;13733;51.178;4.450;2023-03-31T07:16:58;19.95;;;3.97;;
25936;SDS011;13733;51.178;4.450;2023-03-31T07:19:23;21.67;;;4.55;;
25936;SDS011;13733;51.178;4.450;2023-03-31T07:21:50;25.77;;;4.97;;
25936;SDS011;13733;51.178;4.450;2023-03-31T07:24:16;20.38;;;4.15;;
25936;SDS011;13733;51.178;4.450;2023-03-31T07:26:42;20.90;;;4.93;;
25936;SDS011;13733;51.178;4.450;2023-03-31T07:29:07;22.27;;;4.95;;
25936;SDS011;13733;51.178;4.450;2023-03-31T07:31:33;21.55;;;5.43;;
25936;SDS011;13733;51.178;4.450;2023-03-31T07:34:02;20.05;;;4.57;;
25936;SDS011;13733;51.178;4.450;2023-03-31T07:36:28;20.75;;;5.00;;
25936;SDS011;13733;51.178;4.450;2023-03-31T07:38:55;24.92;;;5.10;;
25936;SDS011;13733;51.178;4.450;2023-03-31T07:41:21;28.23;;;4.80;;
25936;SDS011;13733;51.178;4.450;2023-03-31T07:43:47;25.58;;;4.90;;
25936;SDS011;13733;51.178;4.450;2023-03-31T07:46:18;18.58;;;4.43;;
25936;SDS011;13733;51.178;4.450;2023-03-31T07:48:47;22.13;;;4.80;;
25936;SDS011;13733;51.178;4.450;2023-03-31T07:51:17;21.48;;;5.13;;
25936;SDS011;13733;51.178;4.450;2023-03-31T07:53:45;27.92;;;5.63;;
25936;SDS011;13733;51.178;4.450;2023-03-31T07:56:13;27.55;;;5.05;;
25936;SDS011;13733;51.178;4.450;2023-03-31T07:58:41;23.25;;;4.78;;
25936;SDS011;13733;51.178;4.450;2023-03-31T08:01:07;24.65;;;4.45;;
25936;SDS011;13733;51.178;4.450;2023-03-31T08:03:33;22.83;;;4.97;;
25936;SDS011;13733;51.178;4.450;2023-03-31T08:05:58;26.00;;;4.95;;
25936;SDS011;13733;51.178;4.450;2023-03-31T08:08:25;22.00;;;4.78;;
25936;SDS011;13733;51.178;4.450;2023-03-31T08:10:50;24.48;;;5.40;;
25936;SDS011;13733;51.178;4.450;2023-03-31T08:13:17;26.80;;;4.93;;
25936;SDS011;13733;51.178;4.450;2023-03-31T08:15:42;30.15;;;6.13;;
25936;SDS011;13733;51.178;4.450;2023-03-31T08:18:08;22.35;;;4.65;;
25936;SDS011;13733;51.178;4.450;2023-03-31T08:20:34;29.10;;;5.47;;
25936;SDS011;13733;51.178;4.450;2023-03-31T08:23:00;22.83;;;5.18;;
25936;SDS011;13733;51.178;4.450;2023-03-31T08:25:26;30.67;;;5.82;;
25936;SDS011;13733;51.178;4.450;2023-03-31T08:27:52;21.15;;;4.70;;
25936;SDS011;13733;51.178;4.450;2023-03-31T08:30:18;31.20;;;5.05;;
25936;SDS011;13733;51.178;4.450;2023-03-31T08:32:44;23.40;;;4.85;;
25936;SDS011;13733;51.178;4.450;2023-03-31T08:35:10;28.90;;;5.05;;
25936;SDS011;13733;51.178;4.450;2023-03-31T08:37:36;19.48;;;4.55;;
25936;SDS011;13733;51.178;4.450;2023-03-31T08:40:04;26.33;;;5.55;;
25936;SDS011;13733;51.178;4.450;2023-03-31T08:42:35;23.00;;;5.38;;
25936;SDS011;13733;51.178;4.450;2023-03-31T08:45:14;20.70;;;4.60;;
25936;SDS011;13733;51.178;4.450;2023-03-31T08:47:58;26.23;;;4.68;;
25936;SDS011;13733;51.178;4.450;2023-03-31T08:50:31;22.55;;;5.07;;
25936;SDS011;13733;51.178;4.450;2023-03-31T08:53:35;20.67;;;4.60;;
25936;SDS011;13733;51.178;4.450;2023-03-31T08:55:52;21.83;;;4.80;;
25936;SDS011;13733;51.178;4.450;2023-03-31T09:00:55;17.02;;;4.32;;
25936;SDS011;13733;51.178;4.450;2023-03-31T09:04:29;16.88;;;4.30;;
25936;SDS011;13733;51.178;4.450;2023-03-31T09:06:51;20.38;;;4.80;;
25936;SDS011;13733;51.178;4.450;2023-03-31T09:12:09;18.67;;;4.35;;
25936;SDS011;13733;51.178;4.450;2023-03-31T09:17:33;18.02;;;4.43;;
25936;SDS011;13733;51.178;4.450;2023-03-31T09:20:15;21.55;;;4.38;;
25936;SDS011;13733;51.178;4.450;2023-03-31T09:22:43;24.15;;;4.63;;
25936;SDS011;13733;51.178;4.450;2023-03-31T09:27:46;22.88;;;5.35;;
25936;SDS011;13733;51.178;4.450;2023-03-31T09:30:35;21.95;;;5.18;;
25936;SDS011;13733;51.178;4.450;2023-03-31T09:33:24;21.65;;;4.82;;
25936;SDS011;13733;51.178;4.450;2023-03-31T09:36:00;26.27;;;4.88;;
25936;SDS011;13733;51.178;4.450;2023-03-31T09:38:27;21.83;;;5.15;;
25936;SDS011;13733;51.178;4.450;2023-03-31T09:40:56;21.65;;;4.82;;
25936;SDS011;13733;51.178;4.450;2023-03-31T09:43:25;25.55;;;5.05;;
25936;SDS011;13733;51.178;4.450;2023-03-31T09:45:52;23.45;;;5.22;;
25936;SDS011;13733;51.178;4.450;2023-03-31T09:48:20;25.33;;;5.45;;
25936;SDS011;13733;51.178;4.450;2023-03-31T09:51:13;22.90;;;5.05;;
25936;SDS011;13733;51.178;4.450;2023-03-31T09:53:52;25.73;;;5.28;;
25936;SDS011;13733;51.178;4.450;2023-03-31T10:05:02;26.48;;;5.43;;
25936;SDS011;13733;51.178;4.450;2023-03-31T10:07:29;25.80;;;5.78;;
25936;SDS011;13733;51.178;4.450;2023-03-31T10:09:55;29.27;;;5.30;;
25936;SDS011;13733;51.178;4.450;2023-03-31T10:12:25;28.08;;;5.57;;
25936;SDS011;13733;51.178;4.450;2023-03-31T10:14:54;24.80;;;5.32;;
25936;SDS011;13733;51.178;4.450;2023-03-31T10:17:37;30.77;;;6.25;;
25936;SDS011;13733;51.178;4.450;2023-03-31T10:22:56;25.58;;;5.53;;
25936;SDS011;13733;51.178;4.450;2023-03-31T10:28:17;23.48;;;4.88;;
25936;SDS011;13733;51.178;4.450;2023-03-31T10:30:54;26.00;;;5.95;;
25936;SDS011;13733;51.178;4.450;2023-03-31T10:33:25;25.80;;;4.90;;
25936;SDS011;13733;51.178;4.450;2023-03-31T10:35:57;25.90;;;5.05;;
25936;SDS011;13733;51.178;4.450;2023-03-31T10:38:46;23.02;;;4.75;;
25936;SDS011;13733;51.178;4.450;2023-03-31T10:41:16;21.17;;;5.22;;
25936;SDS011;13733;51.178;4.450;2023-03-31T10:44:01;24.35;;;5.38;;
25936;SDS011;13733;51.178;4.450;2023-03-31T10:46:38;31.42;;;5.97;;
25936;SDS011;13733;51.178;4.450;2023-03-31T10:49:29;23.52;;;4.97;;
25936;SDS011;13733;51.178;4.450;2023-03-31T10:52:01;25.17;;;5.22;;
25936;SDS011;13733;51.178;4.450;2023-03-31T10:54:27;27.45;;;6.50;;
25936;SDS011;13733;51.178;4.450;2023-03-31T10:56:53;28.95;;;6.50;;
25936;SDS011;13733;51.178;4.450;2023-03-31T11:04:48;23.80;;;5.18;;
25936;SDS011;13733;51.178;4.450;2023-03-31T11:12:49;24.42;;;4.75;;
25936;SDS011;13733;51.178;4.450;2023-03-31T11:15:37;18.35;;;4.45;;
25936;SDS011;13733;51.178;4.450;2023-03-31T11:29:21;24.75;;;4.95;;
25936;SDS011;13733;51.178;4.450;2023-03-31T11:46:02;22.42;;;4.20;;
25936;SDS011;13733;51.178;4.450;2023-03-31T11:48:46;12.07;;;3.28;;
25936;SDS011;13733;51.178;4.450;2023-03-31T11:51:20;15.48;;;3.58;;
25936;SDS011;13733;51.178;4.450;2023-03-31T11:53:53;16.33;;;3.42;;
25936;SDS011;13733;51.178;4.450;2023-03-31T11:56:21;15.55;;;3.53;;
25936;SDS011;13733;51.178;4.450;2023-03-31T11:58:52;25.73;;;4.63;;
25936;SDS011;13733;51.178;4.450;2023-03-31T12:01:28;19.58;;;4.55;;
25936;SDS011;13733;51.178;4.450;2023-03-31T12:04:00;14.68;;;4.05;;
25936;SDS011;13733;51.178;4.450;2023-03-31T12:06:28;20.08;;;4.80;;
25936;SDS011;13733;51.178;4.450;2023-03-31T12:09:09;10.80;;;3.60;;
25936;SDS011;13733;51.178;4.450;2023-03-31T12:11:42;16.52;;;3.42;;
25936;SDS011;13733;51.178;4.450;2023-03-31T12:17:03;16.05;;;3.35;;
25936;SDS011;13733;51.178;4.450;2023-03-31T12:22:59;21.83;;;4.07;;
25936;SDS011;13733;51.178;4.450;2023-03-31T12:25:32;13.32;;;3.30;;
25936;SDS011;13733;51.178;4.450;2023-03-31T12:28:17;14.13;;;3.53;;
25936;SDS011;13733;51.178;4.450;2023-03-31T12:30:44;15.65;;;3.10;;
25936;SDS011;13733;51.178;4.450;2023-03-31T12:33:24;12.90;;;3.15;;
25936;SDS011;13733;51.178;4.450;2023-03-31T13:06:07;10.68;;;2.50;;
25936;SDS011;13733;51.178;4.450;2023-03-31T13:08:54;11.13;;;2.28;;
25936;SDS011;13733;51.178;4.450;2023-03-31T13:16:49;9.68;;;2.10;;
25936;SDS011;13733;51.178;4.450;2023-03-31T13:19:34;13.35;;;2.33;;
25936;SDS011;13733;51.178;4.450;2023-03-31T13:22:01;12.73;;;2.53;;
25936;SDS011;13733;51.178;4.450;2023-03-31T13:24:29;12.23;;;2.53;;
25936;SDS011;13733;51.178;4.450;2023-03-31T13:26:56;9.18;;;2.53;;
25936;SDS011;13733;51.178;4.450;2023-03-31T13:29:42;10.02;;;2.30;;
25936;SDS011;13733;51.178;4.450;2023-03-31T13:32:19;8.32;;;2.33;;
25936;SDS011;13733;51.178;4.450;2023-03-31T13:34:50;5.18;;;1.88;;
25936;SDS011;13733;51.178;4.450;2023-03-31T13:37:50;7.63;;;2.00;;
25936;SDS011;13733;51.178;4.450;2023-03-31T13:40:47;8.82;;;2.38;;
25936;SDS011;13733;51.178;4.450;2023-03-31T13:43:26;7.15;;;2.10;;
25936;SDS011;13733;51.178;4.450;2023-03-31T13:46:20;4.78;;;1.40;;
25936;SDS011;13733;51.178;4.450;2023-03-31T13:52:09;5.88;;;1.50;;
25936;SDS011;13733;51.178;4.450;2023-03-31T14:07:56;3.25;;;1.17;;
25936;SDS011;13733;51.178;4.450;2023-03-31T14:10:34;1.67;;;1.00;;
25936;SDS011;13733;51.178;4.450;2023-03-31T14:13:05;5.25;;;1.35;;
25936;SDS011;13733;51.178;4.450;2023-03-31T14:15:32;4.80;;;0.95;;
25936;SDS011;13733;51.178;4.450;2023-03-31T14:18:04;2.55;;;0.90;;
25936;SDS011;13733;51.178;4.450;2023-03-31T14:21:18;5.85;;;1.33;;
25936;SDS011;13733;51.178;4.450;2023-03-31T14:26:25;3.30;;;1.20;;
25936;SDS011;13733;51.178;4.450;2023-03-31T14:37:55;4.15;;;1.10;;
25936;SDS011;13733;51.178;4.450;2023-03-31T14:40:21;5.15;;;1.00;;
25936;SDS011;13733;51.178;4.450;2023-03-31T14:42:48;3.20;;;1.00;;
25936;SDS011;13733;51.178;4.450;2023-03-31T14:45:15;3.83;;;1.00;;
25936;SDS011;13733;51.178;4.450;2023-03-31T14:47:56;2.88;;;1.00;;
25936;SDS011;13733;51.178;4.450;2023-03-31T14:50:28;4.13;;;1.00;;
25936;SDS011;13733;51.178;4.450;2023-03-31T14:52:56;4.03;;;1.00;;
25936;SDS011;13733;51.178;4.450;2023-03-31T14:55:25;3.13;;;1.20;;
25936;SDS011;13733;51.178;4.450;2023-03-31T14:57:54;2.75;;;1.10;;
25936;SDS011;13733;51.178;4.450;2023-03-31T15:00:24;3.10;;;1.10;;
25936;SDS011;13733;51.178;4.450;2023-03-31T15:02:53;2.45;;;1.23;;
25936;SDS011;13733;51.178;4.450;2023-03-31T15:07:50;1.35;;;0.90;;
25936;SDS011;13733;51.178;4.450;2023-03-31T15:10:21;3.58;;;1.25;;
25936;SDS011;13733;51.178;4.450;2023-03-31T15:12:48;2.95;;;1.38;;
25936;SDS011;13733;51.178;4.450;2023-03-31T15:15:16;2.15;;;0.90;;
25936;SDS011;13733;51.178;4.450;2023-03-31T15:17:45;3.60;;;1.15;;
25936;SDS011;13733;51.178;4.450;2023-03-31T15:22:55;2.13;;;0.98;;
25936;SDS011;13733;51.178;4.450;2023-03-31T15:25:30;3.05;;;1.13;;
25936;SDS011;13733;51.178;4.450;2023-03-31T15:28:04;3.40;;;1.20;;
25936;SDS011;13733;51.178;4.450;2023-03-31T15:30:34;4.15;;;1.20;;
25936;SDS011;13733;51.178;4.450;2023-03-31T15:33:00;3.63;;;1.10;;
25936;SDS011;13733;51.178;4.450;2023-03-31T15:35:28;2.38;;;1.10;;
25936;SDS011;13733;51.178;4.450;2023-03-31T15:37:59;4.10;;;1.15;;
25936;SDS011;13733;51.178;4.450;2023-03-31T15:40:29;5.63;;;1.42;;
25936;SDS011;13733;51.178;4.450;2023-03-31T15:45:45;10.23;;;2.53;;
25936;SDS011;13733;51.178;4.450;2023-03-31T15:48:26;6.30;;;1.92;;
25936;SDS011;13733;51.178;4.450;2023-03-31T15:51:17;8.05;;;2.33;;
25936;SDS011;13733;51.178;4.450;2023-03-31T15:58:58;10.20;;;2.40;;
25936;SDS011;13733;51.178;4.450;2023-03-31T16:01:26;9.98;;;2.03;;
25936;SDS011;13733;51.178;4.450;2023-03-31T16:04:24;12.20;;;2.40;;
25936;SDS011;13733;51.178;4.450;2023-03-31T16:07:00;13.05;;;2.58;;
25936;SDS011;13733;51.178;4.450;2023-03-31T16:09:51;9.00;;;2.10;;
25936;SDS011;13733;51.178;4.450;2023-03-31T16:17:54;10.30;;;2.45;;
25936;SDS011;13733;51.178;4.450;2023-03-31T16:20:36;13.48;;;3.08;;
25936;SDS011;13733;51.178;4.450;2023-03-31T16:23:14;10.73;;;2.88;;
25936;SDS011;13733;51.178;4.450;2023-03-31T16:25:43;12.35;;;2.88;;
25936;SDS011;13733;51.178;4.450;2023-03-31T16:28:14;7.13;;;2.40;;
25936;SDS011;13733;51.178;4.450;2023-03-31T16:30:43;13.15;;;2.90;;
25936;SDS011;13733;51.178;4.450;2023-03-31T16:33:10;11.73;;;2.70;;
25936;SDS011;13733;51.178;4.450;2023-03-31T16:35:39;12.35;;;2.72;;
25936;SDS011;13733;51.178;4.450;2023-03-31T16:38:10;12.25;;;2.67;;
25936;SDS011;13733;51.178;4.450;2023-03-31T16:40:40;14.27;;;3.28;;
25936;SDS011;13733;51.178;4.450;2023-03-31T16:43:12;10.30;;;2.75;;
25936;SDS011;13733;51.178;4.450;2023-03-31T16:48:16;11.15;;;2.60;;
25936;SDS011;13733;51.178;4.450;2023-03-31T16:50:44;11.90;;;2.80;;
25936;SDS011;13733;51.178;4.450;2023-03-31T16:53:12;13.55;;;2.90;;
25936;SDS011;13733;51.178;4.450;2023-03-31T16:55:38;12.43;;;2.45;;
25936;SDS011;13733;51.178;4.450;2023-03-31T16:58:04;8.25;;;2.42;;
25936;SDS011;13733;51.178;4.450;2023-03-31T17:00:31;11.18;;;2.65;;
25936;SDS011;13733;51.178;4.450;2023-03-31T17:02:59;10.98;;;2.58;;
25936;SDS011;13733;51.178;4.450;2023-03-31T17:05:25;10.38;;;2.67;;
25936;SDS011;13733;51.178;4.450;2023-03-31T17:07:51;10.13;;;2.58;;
25936;SDS011;13733;51.178;4.450;2023-03-31T17:10:17;9.85;;;2.30;;
25936;SDS011;13733;51.178;4.450;2023-03-31T17:12:44;16.13;;;3.35;;
25936;SDS011;13733;51.178;4.450;2023-03-31T17:15:10;12.52;;;3.05;;
25936;SDS011;13733;51.178;4.450;2023-03-31T17:17:37;10.50;;;2.60;;
25936;SDS011;13733;51.178;4.450;2023-03-31T17:20:03;14.68;;;2.80;;
25936;SDS011;13733;51.178;4.450;2023-03-31T17:22:31;11.80;;;2.78;;
25936;SDS011;13733;51.178;4.450;2023-03-31T17:24:57;13.57;;;3.38;;
25936;SDS011;13733;51.178;4.450;2023-03-31T17:27:26;12.15;;;3.33;;
25936;SDS011;13733;51.178;4.450;2023-03-31T17:29:53;15.45;;;2.80;;
25936;SDS011;13733;51.178;4.450;2023-03-31T17:32:19;9.05;;;2.50;;
25936;SDS011;13733;51.178;4.450;2023-03-31T17:34:46;13.23;;;3.17;;
25936;SDS011;13733;51.178;4.450;2023-03-31T17:37:16;9.35;;;3.05;;
25936;SDS011;13733;51.178;4.450;2023-03-31T17:39:43;13.95;;;3.20;;
25936;SDS011;13733;51.178;4.450;2023-03-31T17:42:10;12.75;;;3.05;;
25936;SDS011;13733;51.178;4.450;2023-03-31T17:44:37;20.60;;;3.63;;
25936;SDS011;13733;51.178;4.450;2023-03-31T17:47:04;15.57;;;3.50;;
25936;SDS011;13733;51.178;4.450;2023-03-31T17:49:30;20.02;;;4.30;;
25936;SDS011;13733;51.178;4.450;2023-03-31T17:51:57;20.45;;;3.85;;
25936;SDS011;13733;51.178;4.450;2023-03-31T17:54:23;19.85;;;4.38;;
25936;SDS011;13733;51.178;4.450;2023-03-31T17:56:49;16.38;;;3.72;;
25936;SDS011;13733;51.178;4.450;2023-03-31T17:59:15;17.02;;;4.18;;
25936;SDS011;13733;51.178;4.450;2023-03-31T18:01:42;14.98;;;3.85;;
25936;SDS011;13733;51.178;4.450;2023-03-31T18:04:08;21.00;;;4.18;;
25936;SDS011;13733;51.178;4.450;2023-03-31T18:06:34;21.38;;;4.15;;
25936;SDS011;13733;51.178;4.450;2023-03-31T18:09:00;19.83;;;3.58;;
25936;SDS011;13733;51.178;4.450;2023-03-31T18:11:26;24.10;;;4.30;;
25936;SDS011;13733;51.178;4.450;2023-03-31T18:13:52;20.00;;;4.05;;
25936;SDS011;13733;51.178;4.450;2023-03-31T18:16:18;23.00;;;5.10;;
25936;SDS011;13733;51.178;4.450;2023-03-31T18:18:44;18.48;;;4.72;;
25936;SDS011;13733;51.178;4.450;2023-03-31T18:21:11;24.25;;;3.92;;
25936;SDS011;13733;51.178;4.450;2023-03-31T18:23:38;20.33;;;4.07;;
25936;SDS011;13733;51.178;4.450;2023-03-31T18:26:04;19.45;;;4.15;;
25936;SDS011;13733;51.178;4.450;2023-03-31T18:28:31;22.02;;;4.30;;
25936;SDS011;13733;51.178;4.450;2023-03-31T18:30:57;19.23;;;4.85;;
25936;SDS011;13733;51.178;4.450;2023-03-31T18:33:29;19.10;;;3.92;;
25936;SDS011;13733;51.178;4.450;2023-03-31T18:35:55;20.02;;;4.65;;
25936;SDS011;13733;51.178;4.450;2023-03-31T18:38:24;19.42;;;4.47;;